sensor_id;sensor_type;location;lat;lon;timestamp;pressure;altitude;pressure_sealevel;temperature;humidity
18749;BME280;9503;53.560;10.246;2023-05-10T00:01:10;100198.69;;;18.55;52.97
18749;BME280;9503;53.560;10.246;2023-05-10T00:03:37;100197.41;;;18.04;53.57
18749;BME280;9503;53.560;10.246;2023-05-10T00:06:05;100198.84;;;18.72;52.41
18749;BME280;9503;53.560;10.246;2023-05-10T00:08:31;100182.88;;;18.25;53.44
18749;BME280;9503;53.560;10.246;2023-05-10T00:10:58;100194.06;;;18.14;54.10
18749;BME280;9503;53.560;10.246;2023-05-10T00:13:25;100178.50;;;18.16;53.41
18749;BME280;9503;53.560;10.246;2023-05-10T00:15:52;100186.56;;;18.53;52.90
18749;BME280;9503;53.560;10.246;2023-05-10T00:18:18;100183.72;;;18.20;53.58
18749;BME280;9503;53.560;10.246;2023-05-10T00:20:45;100175.91;;;18.16;53.70
18749;BME280;9503;53.560;10.246;2023-05-10T00:23:13;100175.44;;;18.67;52.87
18749;BME280;9503;53.560;10.246;2023-05-10T00:25:39;100173.38;;;18.23;53.49
18749;BME280;9503;53.560;10.246;2023-05-10T00:28:06;100165.16;;;17.76;54.22
18749;BME280;9503;53.560;10.246;2023-05-10T00:30:32;100167.44;;;18.40;53.50
18749;BME280;9503;53.560;10.246;2023-05-10T00:32:59;100162.75;;;17.93;54.38
18749;BME280;9503;53.560;10.246;2023-05-10T00:35:26;100159.44;;;18.12;53.74
18749;BME280;9503;53.560;10.246;2023-05-10T00:37:52;100163.00;;;18.23;53.94
18749;BME280;9503;53.560;10.246;2023-05-10T00:40:20;100153.69;;;18.56;53.12
18749;BME280;9503;53.560;10.246;2023-05-10T00:42:47;100153.44;;;18.19;53.58
18749;BME280;9503;53.560;10.246;2023-05-10T00:45:13;100153.63;;;18.45;53.28
18749;BME280;9503;53.560;10.246;2023-05-10T00:47:40;100152.19;;;18.90;52.61
18749;BME280;9503;53.560;10.246;2023-05-10T00:50:07;100152.88;;;18.59;52.62
18749;BME280;9503;53.560;10.246;2023-05-10T00:52:34;100149.09;;;18.15;53.75
18749;BME280;9503;53.560;10.246;2023-05-10T00:55:01;100147.47;;;18.34;53.05
18749;BME280;9503;53.560;10.246;2023-05-10T00:57:30;100142.25;;;18.27;53.17
18749;BME280;9503;53.560;10.246;2023-05-10T01:00:03;100149.31;;;18.47;53.26
18749;BME280;9503;53.560;10.246;2023-05-10T01:02:30;100138.78;;;18.28;53.36
18749;BME280;9503;53.560;10.246;2023-05-10T01:04:56;100139.09;;;18.72;52.67
18749;BME280;9503;53.560;10.246;2023-05-10T01:07:23;100140.69;;;18.53;52.97
18749;BME280;9503;53.560;10.246;2023-05-10T01:09:50;100132.81;;;18.41;53.00
18749;BME280;9503;53.560;10.246;2023-05-10T01:12:16;100134.59;;;18.46;52.89
18749;BME280;9503;53.560;10.246;2023-05-10T01:14:45;100133.06;;;17.68;53.96
18749;BME280;9503;53.560;10.246;2023-05-10T01:17:12;100135.19;;;18.10;53.57
18749;BME280;9503;53.560;10.246;2023-05-10T01:19:40;100130.75;;;17.92;54.16
18749;BME280;9503;53.560;10.246;2023-05-10T01:22:22;100123.78;;;17.88;54.22
18749;BME280;9503;53.560;10.246;2023-05-10T01:28:20;100134.41;;;18.20;53.91
18749;BME280;9503;53.560;10.246;2023-05-10T01:31:25;100133.47;;;18.14;53.89
18749;BME280;9503;53.560;10.246;2023-05-10T01:34:00;100139.81;;;17.52;54.97
18749;BME280;9503;53.560;10.246;2023-05-10T01:36:31;100139.28;;;17.82;54.68
18749;BME280;9503;53.560;10.246;2023-05-10T01:39:02;100140.31;;;18.03;54.18
18749;BME280;9503;53.560;10.246;2023-05-10T01:41:39;100144.72;;;18.10;53.77
18749;BME280;9503;53.560;10.246;2023-05-10T01:44:12;100145.56;;;18.07;54.25
18749;BME280;9503;53.560;10.246;2023-05-10T01:46:40;100139.53;;;18.10;53.94
18749;BME280;9503;53.560;10.246;2023-05-10T01:49:10;100136.81;;;17.99;54.24
18749;BME280;9503;53.560;10.246;2023-05-10T01:51:41;100138.59;;;18.05;54.10
18749;BME280;9503;53.560;10.246;2023-05-10T01:54:12;100133.63;;;18.34;53.53
18749;BME280;9503;53.560;10.246;2023-05-10T01:56:40;100135.09;;;17.98;54.27
18749;BME280;9503;53.560;10.246;2023-05-10T01:59:11;100134.41;;;18.20;53.97
18749;BME280;9503;53.560;10.246;2023-05-10T02:01:40;100129.09;;;18.05;54.24
18749;BME280;9503;53.560;10.246;2023-05-10T02:04:10;100134.78;;;17.69;54.87
18749;BME280;9503;53.560;10.246;2023-05-10T02:06:40;100130.56;;;17.76;55.08
18749;BME280;9503;53.560;10.246;2023-05-10T02:09:09;100126.25;;;17.75;55.07
18749;BME280;9503;53.560;10.246;2023-05-10T02:11:37;100130.63;;;17.79;55.21
18749;BME280;9503;53.560;10.246;2023-05-10T02:14:05;100131.78;;;18.14;54.19
18749;BME280;9503;53.560;10.246;2023-05-10T02:16:35;100128.59;;;17.55;55.17
18749;BME280;9503;53.560;10.246;2023-05-10T02:19:03;100136.50;;;17.65;55.44
18749;BME280;9503;53.560;10.246;2023-05-10T02:21:32;100137.00;;;18.19;54.32
18749;BME280;9503;53.560;10.246;2023-05-10T02:24:00;100144.94;;;18.39;53.80
18749;BME280;9503;53.560;10.246;2023-05-10T02:26:29;100127.00;;;17.69;54.78
18749;BME280;9503;53.560;10.246;2023-05-10T02:28:57;100124.81;;;17.24;56.19
18749;BME280;9503;53.560;10.246;2023-05-10T02:31:25;100121.97;;;17.78;54.90
18749;BME280;9503;53.560;10.246;2023-05-10T02:33:53;100125.44;;;17.80;55.42
18749;BME280;9503;53.560;10.246;2023-05-10T02:36:20;100125.03;;;17.42;56.08
18749;BME280;9503;53.560;10.246;2023-05-10T02:38:49;100120.44;;;18.00;54.65
18749;BME280;9503;53.560;10.246;2023-05-10T02:41:18;100126.00;;;17.55;54.91
18749;BME280;9503;53.560;10.246;2023-05-10T02:43:47;100117.91;;;17.23;56.46
18749;BME280;9503;53.560;10.246;2023-05-10T02:46:16;100111.53;;;16.95;57.08
18749;BME280;9503;53.560;10.246;2023-05-10T02:48:43;100129.81;;;17.08;57.05
18749;BME280;9503;53.560;10.246;2023-05-10T02:51:11;100111.00;;;16.58;58.18
18749;BME280;9503;53.560;10.246;2023-05-10T02:53:41;100108.75;;;16.81;57.80
18749;BME280;9503;53.560;10.246;2023-05-10T02:56:13;100107.97;;;16.87;57.19
18749;BME280;9503;53.560;10.246;2023-05-10T02:58:42;100107.78;;;16.71;57.72
18749;BME280;9503;53.560;10.246;2023-05-10T03:01:09;100104.09;;;16.55;57.84
18749;BME280;9503;53.560;10.246;2023-05-10T03:03:35;100101.13;;;16.90;57.38
18749;BME280;9503;53.560;10.246;2023-05-10T03:06:02;100101.91;;;16.83;58.07
18749;BME280;9503;53.560;10.246;2023-05-10T03:08:29;100101.81;;;16.77;57.71
18749;BME280;9503;53.560;10.246;2023-05-10T03:11:14;100095.78;;;16.79;57.77
18749;BME280;9503;53.560;10.246;2023-05-10T03:13:48;100090.03;;;16.38;58.66
18749;BME280;9503;53.560;10.246;2023-05-10T03:16:24;100101.81;;;16.77;58.51
18749;BME280;9503;53.560;10.246;2023-05-10T03:18:58;100108.41;;;16.58;58.64
18749;BME280;9503;53.560;10.246;2023-05-10T03:21:29;100103.03;;;16.44;58.79
18749;BME280;9503;53.560;10.246;2023-05-10T03:23:59;100102.59;;;16.70;57.84
18749;BME280;9503;53.560;10.246;2023-05-10T03:26:32;100105.44;;;16.91;57.59
18749;BME280;9503;53.560;10.246;2023-05-10T03:28:59;100110.19;;;16.61;58.71
18749;BME280;9503;53.560;10.246;2023-05-10T03:31:26;100108.06;;;16.94;57.72
18749;BME280;9503;53.560;10.246;2023-05-10T03:33:53;100101.59;;;16.63;58.05
18749;BME280;9503;53.560;10.246;2023-05-10T03:36:20;100100.38;;;17.02;57.52
18749;BME280;9503;53.560;10.246;2023-05-10T03:38:46;100099.56;;;16.42;58.95
18749;BME280;9503;53.560;10.246;2023-05-10T03:41:13;100101.63;;;16.07;59.97
18749;BME280;9503;53.560;10.246;2023-05-10T03:43:41;100099.47;;;16.36;59.60
18749;BME280;9503;53.560;10.246;2023-05-10T03:46:08;100101.38;;;16.48;58.86
18749;BME280;9503;53.560;10.246;2023-05-10T03:48:34;100102.44;;;16.61;58.94
18749;BME280;9503;53.560;10.246;2023-05-10T03:51:01;100099.16;;;16.71;58.77
18749;BME280;9503;53.560;10.246;2023-05-10T03:53:28;100104.09;;;16.55;58.17
18749;BME280;9503;53.560;10.246;2023-05-10T03:55:54;100100.63;;;17.20;57.18
18749;BME280;9503;53.560;10.246;2023-05-10T03:58:21;100103.59;;;17.61;56.28
18749;BME280;9503;53.560;10.246;2023-05-10T04:00:49;100107.69;;;17.35;56.93
18749;BME280;9503;53.560;10.246;2023-05-10T04:03:15;100107.13;;;16.89;58.04
18749;BME280;9503;53.560;10.246;2023-05-10T04:05:42;100107.81;;;17.49;56.63
18749;BME280;9503;53.560;10.246;2023-05-10T04:08:09;100103.25;;;16.59;58.39
18749;BME280;9503;53.560;10.246;2023-05-10T04:10:35;100102.94;;;16.99;57.74
18749;BME280;9503;53.560;10.246;2023-05-10T04:13:02;100102.16;;;17.04;57.96
18749;BME280;9503;53.560;10.246;2023-05-10T04:15:28;100107.19;;;16.91;58.18
18749;BME280;9503;53.560;10.246;2023-05-10T04:17:56;100106.72;;;17.27;57.45
18749;BME280;9503;53.560;10.246;2023-05-10T04:20:23;100106.50;;;17.08;57.81
18749;BME280;9503;53.560;10.246;2023-05-10T04:22:49;100106.03;;;17.45;56.55
18749;BME280;9503;53.560;10.246;2023-05-10T04:25:16;100107.84;;;17.53;57.33
18749;BME280;9503;53.560;10.246;2023-05-10T04:27:43;100101.66;;;17.36;56.55
18749;BME280;9503;53.560;10.246;2023-05-10T04:30:10;100105.53;;;16.97;57.25
18749;BME280;9503;53.560;10.246;2023-05-10T04:32:37;100101.88;;;17.62;56.97
18749;BME280;9503;53.560;10.246;2023-05-10T04:35:05;100104.97;;;18.15;55.57
18749;BME280;9503;53.560;10.246;2023-05-10T04:37:32;100104.34;;;18.53;54.57
18749;BME280;9503;53.560;10.246;2023-05-10T04:39:58;100104.16;;;18.24;55.26
18749;BME280;9503;53.560;10.246;2023-05-10T04:42:26;100109.50;;;18.45;54.74
18749;BME280;9503;53.560;10.246;2023-05-10T04:44:52;100114.19;;;17.80;55.67
18749;BME280;9503;53.560;10.246;2023-05-10T04:47:19;100101.81;;;17.53;56.53
18749;BME280;9503;53.560;10.246;2023-05-10T04:49:45;100105.63;;;17.88;56.01
18749;BME280;9503;53.560;10.246;2023-05-10T04:52:13;100105.97;;;18.36;55.24
18749;BME280;9503;53.560;10.246;2023-05-10T04:54:42;100109.38;;;18.24;55.13
18749;BME280;9503;53.560;10.246;2023-05-10T04:57:09;100112.09;;;18.48;55.00
18749;BME280;9503;53.560;10.246;2023-05-10T04:59:36;100113.88;;;18.54;54.68
18749;BME280;9503;53.560;10.246;2023-05-10T05:02:02;100105.03;;;18.21;55.33
18749;BME280;9503;53.560;10.246;2023-05-10T05:04:29;100103.31;;;18.27;54.85
18749;BME280;9503;53.560;10.246;2023-05-10T05:06:56;100112.06;;;17.42;56.95
18749;BME280;9503;53.560;10.246;2023-05-10T05:09:24;100104.31;;;17.47;57.14
18749;BME280;9503;53.560;10.246;2023-05-10T05:11:51;100102.56;;;17.41;57.17
18749;BME280;9503;53.560;10.246;2023-05-10T05:14:17;100099.91;;;18.31;55.72
18749;BME280;9503;53.560;10.246;2023-05-10T05:16:48;100097.34;;;17.39;57.40
18749;BME280;9503;53.560;10.246;2023-05-10T05:19:15;100105.31;;;17.58;57.34
18749;BME280;9503;53.560;10.246;2023-05-10T05:21:41;100101.19;;;17.74;56.89
18749;BME280;9503;53.560;10.246;2023-05-10T05:24:08;100103.41;;;17.40;57.79
18749;BME280;9503;53.560;10.246;2023-05-10T05:26:37;100104.66;;;19.11;54.36
18749;BME280;9503;53.560;10.246;2023-05-10T05:29:04;100110.03;;;19.86;53.06
18749;BME280;9503;53.560;10.246;2023-05-10T05:31:31;100116.59;;;21.43;50.05
18749;BME280;9503;53.560;10.246;2023-05-10T05:33:57;100119.25;;;21.38;49.46
18749;BME280;9503;53.560;10.246;2023-05-10T05:36:24;100110.84;;;20.55;50.39
18749;BME280;9503;53.560;10.246;2023-05-10T05:38:50;100112.44;;;21.01;50.10
18749;BME280;9503;53.560;10.246;2023-05-10T05:41:17;100115.63;;;21.58;49.16
18749;BME280;9503;53.560;10.246;2023-05-10T05:43:45;100129.69;;;21.38;49.03
18749;BME280;9503;53.560;10.246;2023-05-10T05:46:13;100120.22;;;21.05;50.06
18749;BME280;9503;53.560;10.246;2023-05-10T05:48:40;100121.72;;;21.58;49.34
18749;BME280;9503;53.560;10.246;2023-05-10T05:51:06;100121.16;;;22.33;47.74
18749;BME280;9503;53.560;10.246;2023-05-10T05:53:33;100114.81;;;22.54;47.36
18749;BME280;9503;53.560;10.246;2023-05-10T05:56:00;100118.13;;;21.73;48.45
18749;BME280;9503;53.560;10.246;2023-05-10T05:58:26;100119.22;;;21.37;48.89
18749;BME280;9503;53.560;10.246;2023-05-10T06:00:54;100115.19;;;20.39;50.69
18749;BME280;9503;53.560;10.246;2023-05-10T06:03:21;100115.19;;;20.55;51.26
18749;BME280;9503;53.560;10.246;2023-05-10T06:05:47;100121.19;;;20.84;50.46
18749;BME280;9503;53.560;10.246;2023-05-10T06:08:14;100125.63;;;20.50;51.21
18749;BME280;9503;53.560;10.246;2023-05-10T06:10:41;100118.66;;;19.60;52.63
18749;BME280;9503;53.560;10.246;2023-05-10T06:13:07;100122.16;;;19.79;52.61
18749;BME280;9503;53.560;10.246;2023-05-10T06:15:34;100121.28;;;19.65;53.28
18749;BME280;9503;53.560;10.246;2023-05-10T06:18:02;100128.22;;;19.72;52.70
18749;BME280;9503;53.560;10.246;2023-05-10T06:20:29;100123.91;;;20.23;52.35
18749;BME280;9503;53.560;10.246;2023-05-10T06:22:56;100127.38;;;19.92;52.72
18749;BME280;9503;53.560;10.246;2023-05-10T06:25:23;100129.84;;;20.85;51.28
18749;BME280;9503;53.560;10.246;2023-05-10T06:27:50;100125.63;;;20.42;52.00
18749;BME280;9503;53.560;10.246;2023-05-10T06:30:20;100129.09;;;20.54;51.46
18749;BME280;9503;53.560;10.246;2023-05-10T06:32:48;100120.41;;;20.32;52.18
18749;BME280;9503;53.560;10.246;2023-05-10T06:35:16;100129.94;;;20.62;51.81
18749;BME280;9503;53.560;10.246;2023-05-10T06:37:43;100137.59;;;21.08;51.05
18749;BME280;9503;53.560;10.246;2023-05-10T06:40:10;100137.78;;;20.13;52.42
18749;BME280;9503;53.560;10.246;2023-05-10T06:42:37;100134.31;;;20.20;52.38
18749;BME280;9503;53.560;10.246;2023-05-10T06:45:04;100142.84;;;21.00;51.49
18749;BME280;9503;53.560;10.246;2023-05-10T06:47:31;100131.59;;;20.93;50.99
18749;BME280;9503;53.560;10.246;2023-05-10T06:49:57;100137.59;;;21.11;51.29
18749;BME280;9503;53.560;10.246;2023-05-10T06:52:25;100140.19;;;21.15;51.13
18749;BME280;9503;53.560;10.246;2023-05-10T06:54:52;100139.47;;;20.41;51.87
18749;BME280;9503;53.560;10.246;2023-05-10T06:57:19;100139.50;;;20.26;52.63
18749;BME280;9503;53.560;10.246;2023-05-10T06:59:45;100141.88;;;21.24;51.34
18749;BME280;9503;53.560;10.246;2023-05-10T07:02:12;100140.75;;;21.71;50.17
18749;BME280;9503;53.560;10.246;2023-05-10T07:04:40;100151.28;;;21.59;50.13
18749;BME280;9503;53.560;10.246;2023-05-10T07:07:06;100143.84;;;20.65;51.15
18749;BME280;9503;53.560;10.246;2023-05-10T07:09:34;100149.81;;;21.01;51.27
18749;BME280;9503;53.560;10.246;2023-05-10T07:12:01;100154.97;;;21.16;51.12
18749;BME280;9503;53.560;10.246;2023-05-10T07:14:28;100141.75;;;21.53;50.56
18749;BME280;9503;53.560;10.246;2023-05-10T07:16:54;100146.91;;;21.62;50.23
18749;BME280;9503;53.560;10.246;2023-05-10T07:19:21;100150.56;;;21.32;50.81
18749;BME280;9503;53.560;10.246;2023-05-10T07:21:47;100142.75;;;21.29;50.98
18749;BME280;9503;53.560;10.246;2023-05-10T07:24:14;100153.56;;;22.12;50.36
18749;BME280;9503;53.560;10.246;2023-05-10T07:26:42;100145.69;;;22.11;49.99
18749;BME280;9503;53.560;10.246;2023-05-10T07:29:09;100150.59;;;22.47;49.69
18749;BME280;9503;53.560;10.246;2023-05-10T07:31:36;100156.72;;;22.48;49.39
18749;BME280;9503;53.560;10.246;2023-05-10T07:34:02;100158.81;;;23.00;48.61
18749;BME280;9503;53.560;10.246;2023-05-10T07:36:29;100160.19;;;23.28;48.04
18749;BME280;9503;53.560;10.246;2023-05-10T07:38:56;100163.53;;;23.39;47.99
18749;BME280;9503;53.560;10.246;2023-05-10T07:41:23;100163.50;;;23.41;47.48
18749;BME280;9503;53.560;10.246;2023-05-10T07:43:50;100162.38;;;23.62;47.23
18749;BME280;9503;53.560;10.246;2023-05-10T07:46:17;100157.47;;;23.36;47.70
18749;BME280;9503;53.560;10.246;2023-05-10T07:48:44;100161.34;;;23.74;47.09
18749;BME280;9503;53.560;10.246;2023-05-10T07:51:11;100163.91;;;24.80;46.44
18749;BME280;9503;53.560;10.246;2023-05-10T07:53:38;100159.03;;;24.60;46.02
18749;BME280;9503;53.560;10.246;2023-05-10T07:56:21;100151.53;;;23.88;46.72
18749;BME280;9503;53.560;10.246;2023-05-10T07:58:48;100153.66;;;23.61;47.02
18749;BME280;9503;53.560;10.246;2023-05-10T08:01:16;100158.53;;;24.40;46.88
18749;BME280;9503;53.560;10.246;2023-05-10T08:03:42;100160.78;;;24.60;46.44
18749;BME280;9503;53.560;10.246;2023-05-10T08:06:09;100158.66;;;24.31;46.32
18749;BME280;9503;53.560;10.246;2023-05-10T08:08:35;100156.06;;;24.78;46.22
18749;BME280;9503;53.560;10.246;2023-05-10T08:11:03;100167.28;;;23.19;48.13
18749;BME280;9503;53.560;10.246;2023-05-10T08:13:30;100171.19;;;24.64;46.80
18749;BME280;9503;53.560;10.246;2023-05-10T08:15:57;100174.97;;;25.39;45.70
18749;BME280;9503;53.560;10.246;2023-05-10T08:18:25;100176.56;;;25.03;45.27
18749;BME280;9503;53.560;10.246;2023-05-10T08:20:51;100175.69;;;25.05;45.25
18749;BME280;9503;53.560;10.246;2023-05-10T08:23:18;100179.06;;;24.12;46.01
18749;BME280;9503;53.560;10.246;2023-05-10T08:25:44;100179.19;;;23.41;47.15
18749;BME280;9503;53.560;10.246;2023-05-10T08:28:11;100184.19;;;24.19;46.54
18749;BME280;9503;53.560;10.246;2023-05-10T08:30:37;100177.34;;;24.11;46.64
18749;BME280;9503;53.560;10.246;2023-05-10T08:33:04;100180.69;;;24.19;46.46
18749;BME280;9503;53.560;10.246;2023-05-10T08:35:32;100176.75;;;23.92;46.74
18749;BME280;9503;53.560;10.246;2023-05-10T08:38:00;100179.50;;;23.84;47.04
18749;BME280;9503;53.560;10.246;2023-05-10T08:40:26;100177.38;;;24.60;46.57
18749;BME280;9503;53.560;10.246;2023-05-10T08:42:57;100175.03;;;24.93;46.26
18749;BME280;9503;53.560;10.246;2023-05-10T08:45:27;100183.97;;;24.35;45.64
18749;BME280;9503;53.560;10.246;2023-05-10T08:47:55;100179.66;;;25.25;44.82
18749;BME280;9503;53.560;10.246;2023-05-10T08:50:21;100194.06;;;25.02;45.65
18749;BME280;9503;53.560;10.246;2023-05-10T08:52:52;100192.97;;;25.56;45.12
18749;BME280;9503;53.560;10.246;2023-05-10T08:55:21;100203.16;;;24.85;45.74
18749;BME280;9503;53.560;10.246;2023-05-10T08:57:49;100203.03;;;25.77;45.15
18749;BME280;9503;53.560;10.246;2023-05-10T09:00:17;100202.84;;;25.86;44.51
18749;BME280;9503;53.560;10.246;2023-05-10T09:02:44;100200.59;;;26.07;44.50
18749;BME280;9503;53.560;10.246;2023-05-10T09:05:11;100201.03;;;25.48;44.91
18749;BME280;9503;53.560;10.246;2023-05-10T09:07:41;100208.09;;;25.86;44.27
18749;BME280;9503;53.560;10.246;2023-05-10T09:10:10;100208.63;;;26.36;43.62
18749;BME280;9503;53.560;10.246;2023-05-10T09:12:37;100210.53;;;26.31;43.56
18749;BME280;9503;53.560;10.246;2023-05-10T09:15:05;100216.66;;;25.11;45.08
18749;BME280;9503;53.560;10.246;2023-05-10T09:17:33;100220.66;;;24.84;45.99
18749;BME280;9503;53.560;10.246;2023-05-10T09:20:01;100218.31;;;24.67;46.69
18749;BME280;9503;53.560;10.246;2023-05-10T09:22:28;100218.47;;;24.61;46.65
18749;BME280;9503;53.560;10.246;2023-05-10T09:25:05;100215.84;;;24.61;46.90
18749;BME280;9503;53.560;10.246;2023-05-10T09:27:33;100219.53;;;24.49;47.54
18749;BME280;9503;53.560;10.246;2023-05-10T09:30:00;100225.34;;;24.13;48.56
18749;BME280;9503;53.560;10.246;2023-05-10T09:32:36;100228.53;;;24.84;47.52
18749;BME280;9503;53.560;10.246;2023-05-10T09:35:07;100226.81;;;24.83;46.83
18749;BME280;9503;53.560;10.246;2023-05-10T09:37:34;100236.97;;;23.93;48.52
18749;BME280;9503;53.560;10.246;2023-05-10T09:40:04;100228.41;;;24.41;47.92
18749;BME280;9503;53.560;10.246;2023-05-10T09:42:33;100237.47;;;24.18;48.20
18749;BME280;9503;53.560;10.246;2023-05-10T09:45:01;100238.66;;;24.53;48.06
18749;BME280;9503;53.560;10.246;2023-05-10T09:47:28;100246.97;;;24.25;48.35
18749;BME280;9503;53.560;10.246;2023-05-10T09:49:57;100243.81;;;23.34;49.83
18749;BME280;9503;53.560;10.246;2023-05-10T09:52:28;100239.63;;;23.20;50.71
18749;BME280;9503;53.560;10.246;2023-05-10T09:54:55;100245.56;;;23.37;50.67
18749;BME280;9503;53.560;10.246;2023-05-10T09:57:23;100251.63;;;22.50;52.19
18749;BME280;9503;53.560;10.246;2023-05-10T09:59:51;100246.03;;;22.91;52.02
18749;BME280;9503;53.560;10.246;2023-05-10T10:02:19;100249.97;;;22.37;52.77
18749;BME280;9503;53.560;10.246;2023-05-10T10:04:49;100248.53;;;21.87;53.40
18749;BME280;9503;53.560;10.246;2023-05-10T10:07:22;100255.03;;;22.59;52.49
18749;BME280;9503;53.560;10.246;2023-05-10T10:09:49;100254.47;;;22.19;53.14
18749;BME280;9503;53.560;10.246;2023-05-10T10:12:15;100261.38;;;22.28;53.07
18749;BME280;9503;53.560;10.246;2023-05-10T10:14:43;100262.16;;;22.39;53.26
18749;BME280;9503;53.560;10.246;2023-05-10T10:17:11;100265.53;;;22.55;53.23
18749;BME280;9503;53.560;10.246;2023-05-10T10:19:39;100264.63;;;22.57;53.25
18749;BME280;9503;53.560;10.246;2023-05-10T10:22:05;100269.75;;;22.71;53.47
18749;BME280;9503;53.560;10.246;2023-05-10T10:24:32;100268.63;;;23.01;52.69
18749;BME280;9503;53.560;10.246;2023-05-10T10:27:07;100271.56;;;22.63;53.60
18749;BME280;9503;53.560;10.246;2023-05-10T10:29:39;100268.19;;;22.46;54.95
18749;BME280;9503;53.560;10.246;2023-05-10T10:32:18;100271.88;;;22.17;56.79
18749;BME280;9503;53.560;10.246;2023-05-10T10:34:46;100273.13;;;21.34;60.04
18749;BME280;9503;53.560;10.246;2023-05-10T10:37:13;100287.97;;;20.61;66.39
18749;BME280;9503;53.560;10.246;2023-05-10T10:39:40;100286.22;;;20.43;68.39
18749;BME280;9503;53.560;10.246;2023-05-10T10:42:06;100281.91;;;20.79;68.23
18749;BME280;9503;53.560;10.246;2023-05-10T10:44:35;100295.75;;;21.12;69.62
18749;BME280;9503;53.560;10.246;2023-05-10T10:47:20;100300.06;;;20.26;73.77
18749;BME280;9503;53.560;10.246;2023-05-10T10:49:52;100303.13;;;19.27;79.07
18749;BME280;9503;53.560;10.246;2023-05-10T10:52:31;100308.19;;;19.02;81.55
18749;BME280;9503;53.560;10.246;2023-05-10T10:55:00;100300.88;;;18.62;85.56
18749;BME280;9503;53.560;10.246;2023-05-10T10:57:28;100308.28;;;19.22;81.72
18749;BME280;9503;53.560;10.246;2023-05-10T11:00:20;100305.72;;;19.28;80.80
18749;BME280;9503;53.560;10.246;2023-05-10T11:02:48;100312.66;;;19.29;82.63
18749;BME280;9503;53.560;10.246;2023-05-10T11:05:41;100313.72;;;18.45;85.71
18749;BME280;9503;53.560;10.246;2023-05-10T11:08:11;100318.56;;;19.02;85.92
18749;BME280;9503;53.560;10.246;2023-05-10T11:10:38;100317.91;;;19.39;83.49
18749;BME280;9503;53.560;10.246;2023-05-10T11:13:07;100319.88;;;19.79;82.27
18749;BME280;9503;53.560;10.246;2023-05-10T11:15:35;100327.69;;;19.82;82.38
18749;BME280;9503;53.560;10.246;2023-05-10T11:18:17;100322.00;;;19.00;84.95
18749;BME280;9503;53.560;10.246;2023-05-10T11:20:50;100329.13;;;19.30;84.99
18749;BME280;9503;53.560;10.246;2023-05-10T11:23:17;100332.88;;;19.81;83.78
18749;BME280;9503;53.560;10.246;2023-05-10T11:25:45;100333.97;;;20.55;80.07
18749;BME280;9503;53.560;10.246;2023-05-10T11:28:12;100340.09;;;20.64;79.88
18749;BME280;9503;53.560;10.246;2023-05-10T11:30:40;100328.63;;;19.91;80.10
18749;BME280;9503;53.560;10.246;2023-05-10T11:33:07;100341.63;;;19.92;81.95
18749;BME280;9503;53.560;10.246;2023-05-10T11:35:37;100341.56;;;19.81;82.10
18749;BME280;9503;53.560;10.246;2023-05-10T11:38:06;100340.00;;;20.34;82.32
18749;BME280;9503;53.560;10.246;2023-05-10T11:40:33;100346.03;;;20.19;81.40
18749;BME280;9503;53.560;10.246;2023-05-10T11:43:00;100338.97;;;19.81;82.64
18749;BME280;9503;53.560;10.246;2023-05-10T11:45:27;100340.63;;;19.61;83.67
18749;BME280;9503;53.560;10.246;2023-05-10T11:47:55;100341.63;;;19.94;83.67
18749;BME280;9503;53.560;10.246;2023-05-10T11:50:21;100341.19;;;19.19;85.77
18749;BME280;9503;53.560;10.246;2023-05-10T11:52:50;100344.72;;;19.30;86.10
18749;BME280;9503;53.560;10.246;2023-05-10T11:55:19;100349.00;;;19.23;88.84
18749;BME280;9503;53.560;10.246;2023-05-10T11:57:46;100341.97;;;19.09;86.75
18749;BME280;9503;53.560;10.246;2023-05-10T12:00:13;100356.63;;;18.97;89.42
18749;BME280;9503;53.560;10.246;2023-05-10T12:02:40;100352.47;;;19.19;86.48
18749;BME280;9503;53.560;10.246;2023-05-10T12:05:08;100359.63;;;19.54;86.42
18749;BME280;9503;53.560;10.246;2023-05-10T12:07:34;100362.53;;;20.21;84.84
18749;BME280;9503;53.560;10.246;2023-05-10T12:10:08;100359.97;;;20.39;84.40
18749;BME280;9503;53.560;10.246;2023-05-10T12:12:39;100362.63;;;20.56;81.46
18749;BME280;9503;53.560;10.246;2023-05-10T12:15:10;100370.50;;;20.73;80.37
18749;BME280;9503;53.560;10.246;2023-05-10T12:17:38;100370.47;;;21.56;79.08
18749;BME280;9503;53.560;10.246;2023-05-10T12:20:23;100366.16;;;20.72;79.24
18749;BME280;9503;53.560;10.246;2023-05-10T12:22:51;100374.84;;;20.94;79.50
18749;BME280;9503;53.560;10.246;2023-05-10T12:25:18;100375.69;;;21.49;76.97
18749;BME280;9503;53.560;10.246;2023-05-10T12:27:50;100380.06;;;20.82;79.74
18749;BME280;9503;53.560;10.246;2023-05-10T12:30:21;100384.38;;;20.57;79.07
18749;BME280;9503;53.560;10.246;2023-05-10T12:32:48;100392.22;;;20.98;78.27
18749;BME280;9503;53.560;10.246;2023-05-10T12:35:15;100390.50;;;21.28;76.74
18749;BME280;9503;53.560;10.246;2023-05-10T12:37:42;100395.69;;;20.86;77.21
18749;BME280;9503;53.560;10.246;2023-05-10T12:40:10;100394.81;;;20.92;76.42
18749;BME280;9503;53.560;10.246;2023-05-10T12:42:38;100395.69;;;21.37;76.85
18749;BME280;9503;53.560;10.246;2023-05-10T12:45:08;100400.03;;;20.72;78.51
18749;BME280;9503;53.560;10.246;2023-05-10T12:47:35;100400.81;;;21.90;76.53
18749;BME280;9503;53.560;10.246;2023-05-10T12:50:03;100406.84;;;20.30;79.05
18749;BME280;9503;53.560;10.246;2023-05-10T12:52:30;100408.72;;;20.83;80.90
18749;BME280;9503;53.560;10.246;2023-05-10T12:54:58;100406.97;;;21.63;78.42
18749;BME280;9503;53.560;10.246;2023-05-10T12:57:25;100409.59;;;21.68;76.39
18749;BME280;9503;53.560;10.246;2023-05-10T12:59:52;100419.09;;;21.73;77.00